Time;durP1;ratioP1;P1;durP2;ratioP2;P2;SDS_P1;SDS_P2;PMS_P1;PMS_P2;Temp;Humidity;BMP_temperature;BMP_pressure;BME280_temperature;BME280_humidity;BME280_pressure;Samples;Min_cycle;Max_cycle;Signal;HPM_P1;HPM_P2
2024/01/20 00:00:41;;;;;;;17.43;13.47;;;1.60;99.90;;;;;;5016157;28;20044;-81
2024/01/20 00:03:06;;;;;;;22.60;13.40;;;1.50;99.90;;;;;;4999433;28;20115;-80
2024/01/20 00:05:32;;;;;;;18.87;14.00;;;1.60;99.90;;;;;;5031031;28;20085;-82
2024/01/20 00:07:58;;;;;;;17.70;13.10;;;1.60;99.90;;;;;;5033724;28;20029;-80
2024/01/20 00:10:23;;;;;;;17.13;13.90;;;1.60;99.90;;;;;;5014985;28;20041;-82
2024/01/20 00:12:49;;;;;;;17.37;13.47;;;1.60;99.90;;;;;;5031780;28;20121;-81
2024/01/20 00:15:15;;;;;;;19.07;13.33;;;1.60;99.90;;;;;;5017214;28;20041;-82
2024/01/20 00:17:40;;;;;;;20.83;14.33;;;1.60;99.90;;;;;;5033394;28;20050;-82
2024/01/20 00:20:07;;;;;;;19.57;15.00;;;1.60;99.90;;;;;;5031535;28;20044;-80
2024/01/20 00:22:33;;;;;;;22.13;15.03;;;1.60;99.90;;;;;;5035127;28;20053;-82
2024/01/20 00:25:00;;;;;;;20.27;14.77;;;1.50;99.90;;;;;;5047407;28;20068;-81
2024/01/20 00:27:26;;;;;;;18.90;14.97;;;1.50;99.90;;;;;;5035111;28;20443;-81
2024/01/20 00:29:53;;;;;;;17.23;14.23;;;1.40;99.90;;;;;;5050240;28;20045;-81
2024/01/20 00:32:18;;;;;;;17.87;15.97;;;1.30;99.90;;;;;;5054194;28;20041;-81
2024/01/20 00:34:44;;;;;;;20.60;16.70;;;1.30;99.90;;;;;;5021414;28;20113;-82
2024/01/20 00:37:10;;;;;;;22.87;16.73;;;1.20;99.90;;;;;;5014785;28;20086;-81
2024/01/20 00:39:36;;;;;;;24.57;17.13;;;1.20;99.90;;;;;;5037969;28;20029;-81
2024/01/20 00:42:02;;;;;;;22.10;18.27;;;1.20;99.90;;;;;;5057295;28;20115;-82
2024/01/20 00:44:28;;;;;;;24.77;17.67;;;1.20;99.90;;;;;;5016032;28;20124;-81
2024/01/20 00:46:53;;;;;;;23.80;18.67;;;1.20;99.90;;;;;;5023432;28;20064;-81
2024/01/20 00:49:19;;;;;;;23.60;18.47;;;1.20;99.90;;;;;;5003894;28;20489;-80
2024/01/20 00:51:45;;;;;;;23.67;19.13;;;1.10;99.90;;;;;;5022311;28;20049;-81
2024/01/20 00:54:10;;;;;;;21.63;18.90;;;1.10;99.90;;;;;;5037893;28;20045;-81
2024/01/20 00:56:36;;;;;;;24.23;18.43;;;1.10;99.90;;;;;;5037843;28;20090;-81
2024/01/20 00:59:02;;;;;;;21.87;18.83;;;1.10;99.90;;;;;;5022784;28;20036;-81
2024/01/20 01:01:27;;;;;;;26.07;18.60;;;1.10;99.90;;;;;;5035196;28;20111;-82
2024/01/20 01:03:53;;;;;;;22.03;17.80;;;1.10;99.90;;;;;;5021535;28;20040;-81
2024/01/20 01:06:19;;;;;;;22.90;18.40;;;1.00;99.90;;;;;;5036911;28;20072;-82
2024/01/20 01:08:44;;;;;;;25.10;20.30;;;1.00;99.90;;;;;;5018537;28;20072;-83
2024/01/20 01:11:10;;;;;;;24.67;19.50;;;1.10;99.90;;;;;;5040132;28;20124;-81
2024/01/20 01:13:37;;;;;;;22.73;19.20;;;1.10;99.90;;;;;;5051434;28;20373;-80
2024/01/20 01:16:06;;;;;;;25.73;19.73;;;1.10;99.90;;;;;;5054581;28;21057;-81
2024/01/20 01:18:33;;;;;;;25.80;20.80;;;1.00;99.90;;;;;;5037724;28;20037;-81
2024/01/20 01:20:58;;;;;;;25.87;21.67;;;0.90;99.90;;;;;;5036194;28;20033;-81
2024/01/20 01:23:24;;;;;;;27.90;21.37;;;0.90;99.90;;;;;;5018093;28;20048;-81
2024/01/20 01:25:50;;;;;;;30.73;22.50;;;0.80;99.90;;;;;;5051631;28;20045;-81
2024/01/20 01:28:15;;;;;;;27.03;23.10;;;0.90;99.90;;;;;;5006751;28;20094;-81
2024/01/20 01:30:41;;;;;;;32.27;21.97;;;0.80;99.90;;;;;;5052740;28;20033;-82
2024/01/20 01:33:07;;;;;;;28.43;22.53;;;0.80;99.90;;;;;;5036079;28;20033;-81
2024/01/20 01:35:32;;;;;;;30.10;22.87;;;0.80;99.90;;;;;;5008725;28;20037;-81
2024/01/20 01:37:58;;;;;;;28.63;22.77;;;0.80;99.90;;;;;;5051931;28;20029;-81
2024/01/20 01:40:25;;;;;;;30.93;23.83;;;0.80;99.90;;;;;;5020189;28;20311;-81
2024/01/20 01:42:56;;;;;;;29.10;23.07;;;0.80;99.90;;;;;;5016060;28;20385;-81
2024/01/20 01:45:25;;;;;;;30.25;24.15;;;0.80;99.90;;;;;;5034582;28;20052;-81
2024/01/20 01:47:53;;;;;;;31.00;23.87;;;0.80;99.90;;;;;;5034527;28;20040;-81
2024/01/20 01:50:19;;;;;;;32.73;24.87;;;0.80;99.90;;;;;;5035112;28;20127;-81
2024/01/20 01:52:50;;;;;;;27.30;23.53;;;0.70;99.90;;;;;;5048568;28;20665;-81
2024/01/20 01:55:16;;;;;;;30.90;24.03;;;0.70;99.90;;;;;;5033321;28;20408;-81
2024/01/20 01:57:42;;;;;;;32.70;24.57;;;0.70;99.90;;;;;;5032112;28;20036;-81
2024/01/20 02:00:09;;;;;;;28.67;24.17;;;0.70;99.90;;;;;;5053623;28;20055;-81
2024/01/20 02:02:35;;;;;;;30.43;24.07;;;0.70;99.90;;;;;;5015263;28;20141;-81
2024/01/20 02:05:01;;;;;;;31.60;24.70;;;0.70;99.90;;;;;;5021861;28;20045;-80
2024/01/20 02:07:29;;;;;;;35.23;25.77;;;0.70;99.90;;;;;;5035024;28;20123;-81
2024/01/20 02:09:55;;;;;;;30.87;24.67;;;0.60;99.90;;;;;;5034417;28;20072;-81
2024/01/20 02:12:21;;;;;;;32.97;24.80;;;0.70;99.90;;;;;;5034717;28;20040;-81
2024/01/20 02:14:48;;;;;;;32.20;24.40;;;0.70;99.90;;;;;;5035993;28;20037;-81
2024/01/20 02:17:14;;;;;;;29.17;24.93;;;0.70;99.90;;;;;;5022967;28;20037;-80
2024/01/20 02:19:40;;;;;;;31.23;24.67;;;0.70;99.90;;;;;;5034526;28;20051;-81
2024/01/20 02:22:13;;;;;;;33.63;25.77;;;0.70;99.90;;;;;;5034823;28;20041;-81
2024/01/20 02:24:40;;;;;;;34.37;26.73;;;0.70;99.90;;;;;;5050372;28;20140;-81
2024/01/20 02:27:06;;;;;;;35.63;27.03;;;0.70;99.90;;;;;;5021098;28;20704;-82
2024/01/20 02:29:32;;;;;;;33.53;26.63;;;0.60;99.90;;;;;;5033770;28;20041;-81
2024/01/20 02:31:57;;;;;;;32.20;25.50;;;0.60;99.90;;;;;;5019930;28;20392;-80
2024/01/20 02:34:23;;;;;;;33.93;26.93;;;0.60;99.90;;;;;;5023359;28;20115;-81
2024/01/20 02:36:51;;;;;;;36.10;26.50;;;0.60;99.90;;;;;;5036134;28;20050;-81
2024/01/20 02:39:17;;;;;;;34.53;26.97;;;0.60;99.90;;;;;;5036108;28;20119;-81
2024/01/20 02:41:43;;;;;;;34.17;27.40;;;0.60;99.90;;;;;;5051320;28;20124;-81
2024/01/20 02:44:08;;;;;;;34.77;26.90;;;0.50;99.90;;;;;;5016846;28;20037;-81
2024/01/20 02:46:34;;;;;;;33.07;27.50;;;0.50;99.90;;;;;;5050015;28;20047;-81
2024/01/20 02:49:00;;;;;;;34.53;27.53;;;0.50;99.90;;;;;;5033134;28;20446;-80
2024/01/20 02:51:26;;;;;;;32.97;27.27;;;0.60;99.90;;;;;;5037752;28;20045;-81
2024/01/20 02:53:51;;;;;;;36.60;28.03;;;0.50;99.90;;;;;;5034377;28;20542;-80
2024/01/20 02:56:17;;;;;;;34.43;28.00;;;0.50;99.90;;;;;;5015230;28;20048;-81
2024/01/20 02:58:43;;;;;;;35.30;28.57;;;0.60;99.90;;;;;;5034907;28;20043;-82
2024/01/20 03:01:08;;;;;;;37.30;28.03;;;0.60;99.90;;;;;;5017999;28;20037;-81
2024/01/20 03:03:34;;;;;;;37.57;28.20;;;0.60;99.90;;;;;;5016468;28;20577;-81
2024/01/20 03:06:00;;;;;;;34.60;27.60;;;0.60;99.90;;;;;;5017315;28;20047;-81
2024/01/20 03:08:25;;;;;;;37.23;28.33;;;0.60;99.90;;;;;;5035842;28;20064;-80
2024/01/20 03:10:51;;;;;;;42.07;29.67;;;0.60;99.90;;;;;;5026324;28;20499;-81
2024/01/20 03:13:17;;;;;;;35.83;28.53;;;0.60;99.90;;;;;;5019676;28;20559;-82
2024/01/20 03:15:43;;;;;;;39.00;29.03;;;0.60;99.90;;;;;;5007533;28;20032;-80
2024/01/20 03:18:10;;;;;;;35.50;27.93;;;0.60;99.90;;;;;;5038406;28;20166;-80
2024/01/20 03:20:36;;;;;;;36.90;29.00;;;0.60;99.90;;;;;;5035543;28;20048;-80
2024/01/20 03:23:01;;;;;;;43.00;30.17;;;0.50;99.90;;;;;;5018087;28;20041;-81
2024/01/20 03:25:27;;;;;;;35.13;29.03;;;0.60;99.90;;;;;;5017609;28;20127;-80
2024/01/20 03:27:53;;;;;;;40.10;28.90;;;0.50;99.90;;;;;;5019105;28;20053;-80
2024/01/20 03:30:20;;;;;;;38.17;28.37;;;0.50;99.90;;;;;;5033813;28;20098;-80
2024/01/20 03:32:46;;;;;;;35.13;28.90;;;0.50;99.90;;;;;;5021618;28;20059;-80
2024/01/20 03:35:12;;;;;;;42.90;29.47;;;0.40;99.90;;;;;;5016198;28;20444;-81
2024/01/20 03:37:38;;;;;;;40.33;28.27;;;0.40;99.90;;;;;;5019923;28;20054;-80
2024/01/20 03:40:04;;;;;;;39.10;29.17;;;0.40;99.90;;;;;;5001887;28;20445;-81
2024/01/20 03:42:29;;;;;;;39.37;29.33;;;0.40;99.90;;;;;;5000810;28;20045;-80
2024/01/20 03:44:55;;;;;;;36.27;28.60;;;0.40;99.90;;;;;;5032728;28;20412;-80
2024/01/20 03:47:21;;;;;;;37.57;28.27;;;0.40;99.90;;;;;;5032824;28;20049;-81
2024/01/20 03:49:47;;;;;;;39.00;28.97;;;0.40;99.90;;;;;;5019103;28;20053;-80
2024/01/20 03:52:13;;;;;;;40.63;29.30;;;0.40;99.90;;;;;;5017814;28;20037;-80
2024/01/20 03:54:39;;;;;;;39.37;28.73;;;0.30;99.90;;;;;;5031914;28;20037;-80
2024/01/20 03:57:05;;;;;;;38.07;29.47;;;0.30;99.90;;;;;;5017995;28;20059;-80
2024/01/20 03:59:31;;;;;;;37.20;27.70;;;0.40;99.90;;;;;;5005187;28;20119;-80
2024/01/20 04:01:56;;;;;;;40.20;27.67;;;0.40;99.90;;;;;;5041775;28;20047;-80
2024/01/20 04:04:22;;;;;;;40.10;27.50;;;0.30;99.90;;;;;;5038026;28;20045;-81
2024/01/20 04:06:48;;;;;;;41.20;30.10;;;0.30;99.90;;;;;;5019876;28;20067;-80
2024/01/20 04:09:14;;;;;;;41.50;29.83;;;0.30;99.90;;;;;;5016187;28;20037;-80
2024/01/20 04:11:39;;;;;;;36.43;29.23;;;0.40;99.90;;;;;;5021402;28;20044;-80
2024/01/20 04:14:05;;;;;;;41.53;29.47;;;0.40;99.90;;;;;;5016867;28;20037;-81
2024/01/20 04:16:32;;;;;;;40.40;28.40;;;0.40;99.90;;;;;;5038089;28;20060;-81
2024/01/20 04:18:58;;;;;;;41.00;28.40;;;0.30;99.90;;;;;;5034935;28;20049;-81
2024/01/20 04:21:24;;;;;;;38.83;28.33;;;0.30;99.90;;;;;;5039504;28;20055;-81
2024/01/20 04:23:50;;;;;;;37.80;28.37;;;0.30;99.90;;;;;;5036254;28;20051;-81
2024/01/20 04:26:16;;;;;;;38.47;27.90;;;0.30;99.90;;;;;;5036759;28;20488;-80
2024/01/20 04:28:42;;;;;;;42.80;28.93;;;0.30;99.90;;;;;;5037429;28;20033;-81
2024/01/20 04:31:08;;;;;;;36.70;27.83;;;0.30;99.90;;;;;;5052806;28;20554;-81
2024/01/20 04:33:39;;;;;;;36.30;27.70;;;0.30;99.90;;;;;;5052486;28;20025;-80
2024/01/20 04:36:05;;;;;;;40.93;28.20;;;0.30;99.90;;;;;;5036265;28;20103;-80
2024/01/20 04:38:31;;;;;;;45.03;28.97;;;0.30;99.90;;;;;;5010294;28;20037;-80
2024/01/20 04:40:57;;;;;;;44.33;28.83;;;0.30;99.90;;;;;;5038124;28;20051;-80
2024/01/20 04:43:22;;;;;;;39.47;28.30;;;0.30;99.90;;;;;;5052480;28;20043;-81
2024/01/20 04:45:48;;;;;;;39.67;28.07;;;0.20;99.90;;;;;;5033835;28;20040;-80
2024/01/20 04:48:16;;;;;;;38.97;28.77;;;0.20;99.90;;;;;;5036332;28;20040;-80
2024/01/20 04:50:42;;;;;;;41.70;28.67;;;0.20;99.90;;;;;;5021753;28;20539;-81
2024/01/20 04:53:08;;;;;;;41.83;28.53;;;0.20;99.90;;;;;;5052098;28;20175;-81
2024/01/20 04:55:34;;;;;;;42.70;29.10;;;0.20;99.90;;;;;;5017463;28;20508;-81
2024/01/20 04:58:01;;;;;;;46.03;28.87;;;0.10;99.90;;;;;;5038157;28;20083;-81
2024/01/20 05:00:26;;;;;;;46.80;28.73;;;0.10;99.90;;;;;;5035017;28;20400;-80
2024/01/20 05:02:52;;;;;;;42.87;28.53;;;0.10;99.90;;;;;;5035498;28;20047;-80
2024/01/20 05:05:18;;;;;;;49.03;29.83;;;0.10;99.90;;;;;;5054049;28;20485;-81
2024/01/20 05:07:43;;;;;;;46.23;29.60;;;0.00;99.90;;;;;;5025759;28;20078;-81
2024/01/20 05:10:09;;;;;;;44.93;29.73;;;0.00;99.90;;;;;;5018773;28;20103;-81
2024/01/20 05:12:35;;;;;;;48.03;30.27;;;0.00;99.90;;;;;;5006619;28;20032;-81
2024/01/20 05:15:01;;;;;;;49.60;30.43;;;0.00;99.90;;;;;;5036291;28;20037;-80
2024/01/20 05:17:26;;;;;;;51.23;29.00;;;0.00;99.90;;;;;;5026296;28;20044;-80
2024/01/20 05:19:52;;;;;;;49.57;31.53;;;0.00;99.90;;;;;;5020802;28;20036;-81
2024/01/20 05:22:18;;;;;;;50.47;30.50;;;-0.10;99.90;;;;;;5019735;28;20040;-81
2024/01/20 05:24:44;;;;;;;51.60;30.43;;;-0.20;99.90;;;;;;5051452;28;20064;-80
2024/01/20 05:27:10;;;;;;;49.20;30.20;;;-0.10;99.90;;;;;;5022247;28;20083;-81
2024/01/20 05:29:36;;;;;;;54.60;32.57;;;-0.10;99.90;;;;;;5019329;28;20040;-80
2024/01/20 05:32:02;;;;;;;50.53;32.00;;;-0.10;99.90;;;;;;5019975;28;20384;-81
2024/01/20 05:34:28;;;;;;;49.23;30.10;;;-0.10;99.90;;;;;;5035331;28;20040;-80
2024/01/20 05:36:54;;;;;;;53.80;32.67;;;-0.20;99.90;;;;;;5051264;28;20044;-81
2024/01/20 05:39:19;;;;;;;53.70;32.13;;;-0.20;99.90;;;;;;5032111;28;20044;-80
2024/01/20 05:41:45;;;;;;;53.07;30.83;;;-0.20;99.90;;;;;;5052950;28;20108;-81
2024/01/20 05:44:11;;;;;;;56.63;32.57;;;-0.30;99.90;;;;;;5034797;28;20423;-81
2024/01/20 05:46:37;;;;;;;53.70;31.83;;;-0.30;99.90;;;;;;5033405;28;20044;-81
2024/01/20 05:49:02;;;;;;;49.83;31.13;;;-0.30;99.90;;;;;;5018058;28;20567;-80
2024/01/20 05:51:28;;;;;;;50.17;30.80;;;-0.40;99.90;;;;;;5018297;28;20519;-81
2024/01/20 05:53:54;;;;;;;48.60;30.47;;;-0.30;99.90;;;;;;5038495;28;20431;-81
2024/01/20 05:56:21;;;;;;;51.90;31.70;;;-0.30;99.90;;;;;;5032077;28;20037;-81
2024/01/20 05:58:47;;;;;;;51.57;31.67;;;-0.40;99.90;;;;;;5021496;28;20045;-80
2024/01/20 06:01:13;;;;;;;58.63;33.27;;;-0.30;99.90;;;;;;5017513;28;20116;-81
2024/01/20 06:03:39;;;;;;;53.33;31.27;;;-0.40;99.90;;;;;;5021531;28;20086;-81
2024/01/20 06:06:05;;;;;;;55.17;30.87;;;-0.40;99.90;;;;;;5018349;28;20098;-81
2024/01/20 06:08:30;;;;;;;53.70;31.33;;;-0.40;99.90;;;;;;5018460;28;20040;-81
2024/01/20 06:10:56;;;;;;;57.30;32.40;;;-0.40;99.90;;;;;;5040189;28;20028;-81
2024/01/20 06:13:22;;;;;;;54.13;31.03;;;-0.40;99.90;;;;;;5022956;28;20123;-81
2024/01/20 06:15:47;;;;;;;57.13;31.50;;;-0.30;99.90;;;;;;5025621;28;20041;-81
2024/01/20 06:18:13;;;;;;;51.43;29.40;;;-0.30;99.90;;;;;;5034058;28;20492;-81
2024/01/20 06:20:39;;;;;;;57.73;32.23;;;-0.30;99.90;;;;;;5009229;28;20045;-80
2024/01/20 06:23:04;;;;;;;57.30;31.73;;;-0.30;99.90;;;;;;5021521;28;20098;-81
2024/01/20 06:25:30;;;;;;;55.97;30.43;;;-0.30;99.90;;;;;;5020342;28;20567;-81
2024/01/20 06:27:56;;;;;;;52.00;30.80;;;-0.30;99.90;;;;;;5010368;28;20040;-81
2024/01/20 06:30:21;;;;;;;53.73;32.07;;;-0.40;99.90;;;;;;5017778;28;20051;-81
2024/01/20 06:32:47;;;;;;;55.37;31.00;;;-0.40;99.90;;;;;;5019949;28;20120;-81
2024/01/20 06:35:13;;;;;;;55.43;30.43;;;-0.40;99.90;;;;;;5021331;28;20032;-80
2024/01/20 06:37:39;;;;;;;52.30;30.87;;;-0.40;99.90;;;;;;5034267;28;20090;-81
2024/01/20 06:40:06;;;;;;;58.87;31.60;;;-0.40;99.90;;;;;;5021521;28;20076;-81
2024/01/20 06:42:32;;;;;;;49.57;29.43;;;-0.40;99.90;;;;;;5033439;28;20037;-80
2024/01/20 06:44:57;;;;;;;58.93;31.07;;;-0.50;99.90;;;;;;5033086;28;20127;-81
2024/01/20 06:47:23;;;;;;;53.23;30.60;;;-0.40;99.90;;;;;;5035490;28;20046;-80
2024/01/20 06:49:50;;;;;;;51.57;30.40;;;-0.40;99.90;;;;;;5017186;28;20049;-81
2024/01/20 06:52:16;;;;;;;57.27;30.20;;;-0.40;99.90;;;;;;5057687;28;20419;-81
2024/01/20 06:54:42;;;;;;;58.57;31.43;;;-0.40;99.90;;;;;;5033166;28;20043;-81
2024/01/20 06:57:08;;;;;;;50.70;29.80;;;-0.40;99.90;;;;;;5037392;28;20040;-80
2024/01/20 06:59:33;;;;;;;52.73;29.73;;;-0.30;99.90;;;;;;5022532;28;20033;-81
2024/01/20 07:02:00;;;;;;;50.73;28.90;;;-0.30;99.90;;;;;;5014248;28;20041;-80
2024/01/20 07:04:25;;;;;;;49.93;29.20;;;-0.30;99.90;;;;;;5055362;28;20067;-80
2024/01/20 07:06:51;;;;;;;52.87;29.73;;;-0.30;99.90;;;;;;5050517;28;20037;-81
2024/01/20 07:09:17;;;;;;;52.47;29.27;;;-0.30;99.90;;;;;;5034031;28;20064;-81
2024/01/20 07:11:42;;;;;;;53.47;29.77;;;-0.30;99.90;;;;;;5007055;28;20464;-80
2024/01/20 07:14:08;;;;;;;47.43;27.47;;;-0.30;99.90;;;;;;5050640;28;20029;-81
2024/01/20 07:16:34;;;;;;;51.20;30.83;;;-0.30;99.90;;;;;;5032702;28;20041;-81
2024/01/20 07:18:59;;;;;;;55.27;29.80;;;-0.30;99.90;;;;;;5019972;28;20040;-81
2024/01/20 07:21:25;;;;;;;52.73;30.30;;;-0.20;99.90;;;;;;5033698;28;20044;-80
2024/01/20 07:23:51;;;;;;;52.97;29.30;;;-0.30;99.90;;;;;;5007622;28;20060;-80
2024/01/20 07:26:17;;;;;;;52.03;29.33;;;-0.30;99.90;;;;;;5033905;28;20036;-81
2024/01/20 07:28:42;;;;;;;50.63;28.30;;;-0.20;99.90;;;;;;5021471;28;20111;-80
2024/01/20 07:31:08;;;;;;;53.50;29.97;;;-0.30;99.90;;;;;;5018105;28;20076;-80
2024/01/20 07:33:34;;;;;;;56.60;29.50;;;-0.40;99.90;;;;;;5032198;28;20052;-80
2024/01/20 07:36:00;;;;;;;56.10;30.00;;;-0.30;99.90;;;;;;5034313;28;20043;-81
2024/01/20 07:38:26;;;;;;;52.43;29.93;;;-0.40;99.90;;;;;;5017083;28;20045;-80
2024/01/20 07:40:55;;;;;;;52.87;29.97;;;-0.40;99.90;;;;;;5048670;28;20033;-81
2024/01/20 07:43:21;;;;;;;56.27;30.57;;;-0.40;99.90;;;;;;5034460;28;20041;-80
2024/01/20 07:45:47;;;;;;;56.30;30.60;;;-0.40;99.90;;;;;;5035139;28;20037;-81
2024/01/20 07:48:12;;;;;;;54.37;30.17;;;-0.40;99.90;;;;;;5013435;28;20378;-81
2024/01/20 07:50:38;;;;;;;57.93;31.70;;;-0.40;99.90;;;;;;5033751;28;20091;-81
2024/01/20 07:53:04;;;;;;;53.07;29.67;;;-0.30;99.90;;;;;;5036236;28;20049;-81
2024/01/20 07:55:30;;;;;;;57.67;31.10;;;-0.30;99.90;;;;;;5029771;28;20102;-81
2024/01/20 07:57:55;;;;;;;58.10;29.60;;;-0.30;99.90;;;;;;5032301;28;20549;-81
2024/01/20 08:00:21;;;;;;;52.10;30.27;;;-0.20;99.90;;;;;;5005235;28;20048;-82
2024/01/20 08:02:47;;;;;;;55.17;30.70;;;-0.20;99.90;;;;;;5033259;28;20067;-80
2024/01/20 08:05:13;;;;;;;52.90;29.57;;;-0.10;99.90;;;;;;5034097;28;20120;-80
2024/01/20 08:07:38;;;;;;;49.30;29.67;;;-0.10;99.90;;;;;;5030128;28;20260;-80
2024/01/20 08:10:04;;;;;;;56.23;30.73;;;0.00;99.90;;;;;;5031419;28;20098;-81
2024/01/20 08:12:30;;;;;;;53.80;29.50;;;0.00;99.90;;;;;;5031834;28;20503;-79
2024/01/20 08:14:56;;;;;;;50.43;28.87;;;0.00;99.90;;;;;;5052010;28;20488;-81
2024/01/20 08:17:22;;;;;;;52.27;29.57;;;0.10;99.90;;;;;;5034363;28;20037;-80
2024/01/20 08:19:49;;;;;;;56.50;29.47;;;0.20;99.90;;;;;;5026989;28;20068;-80
2024/01/20 08:22:14;;;;;;;53.60;29.37;;;0.20;99.90;;;;;;5017906;28;20049;-80
2024/01/20 08:24:40;;;;;;;51.33;29.07;;;0.30;99.90;;;;;;5033139;28;20033;-80
2024/01/20 08:27:06;;;;;;;58.33;30.43;;;0.30;99.90;;;;;;5019687;28;20064;-80
2024/01/20 08:29:32;;;;;;;52.00;29.43;;;0.30;99.90;;;;;;5049313;28;20068;-81
2024/01/20 08:31:57;;;;;;;48.67;28.50;;;0.30;99.90;;;;;;5033652;28;20543;-80
2024/01/20 08:34:23;;;;;;;50.93;28.77;;;0.30;99.90;;;;;;5032277;28;20041;-80
2024/01/20 08:36:49;;;;;;;56.03;28.00;;;0.40;99.90;;;;;;5032655;28;20033;-81
2024/01/20 08:39:18;;;;;;;50.50;27.93;;;0.40;99.90;;;;;;5037705;28;20045;-80
2024/01/20 08:41:45;;;;;;;50.23;27.83;;;0.40;99.90;;;;;;5032517;28;20504;-80
2024/01/20 08:44:10;;;;;;;49.30;28.13;;;0.50;99.90;;;;;;5036378;28;20045;-80
2024/01/20 08:46:36;;;;;;;49.63;27.80;;;0.50;99.90;;;;;;5019410;28;20040;-80
2024/01/20 08:49:02;;;;;;;48.73;27.50;;;0.60;99.90;;;;;;5035328;28;20515;-81
2024/01/20 08:51:27;;;;;;;55.20;28.60;;;0.60;99.90;;;;;;5021467;28;20136;-80
2024/01/20 08:53:53;;;;;;;51.90;27.97;;;0.60;99.90;;;;;;5023762;28;20028;-80
2024/01/20 08:56:19;;;;;;;50.70;26.90;;;0.70;99.90;;;;;;5021248;28;20039;-79
2024/01/20 08:58:44;;;;;;;51.67;28.87;;;0.70;99.90;;;;;;5021664;28;20127;-80
2024/01/20 09:01:10;;;;;;;47.90;27.53;;;0.70;99.90;;;;;;5054870;28;20041;-80
2024/01/20 09:03:36;;;;;;;51.67;27.63;;;0.80;99.90;;;;;;5058006;28;20047;-80
2024/01/20 09:06:01;;;;;;;51.23;27.40;;;0.90;99.90;;;;;;5059462;28;20517;-80
2024/01/20 09:08:27;;;;;;;48.53;27.70;;;1.00;99.90;;;;;;5055283;28;20043;-80
2024/01/20 09:10:53;;;;;;;47.83;27.83;;;1.00;99.90;;;;;;5025461;28;20392;-79
2024/01/20 09:13:18;;;;;;;44.27;26.43;;;1.10;99.90;;;;;;5028593;28;20432;-80
2024/01/20 09:15:45;;;;;;;49.27;26.50;;;1.10;99.90;;;;;;5021780;28;20043;-80
2024/01/20 09:18:11;;;;;;;46.47;26.90;;;1.00;99.90;;;;;;5054216;28;20101;-80
2024/01/20 09:20:37;;;;;;;46.83;25.70;;;1.10;99.90;;;;;;5057641;28;20044;-82
2024/01/20 09:23:03;;;;;;;48.93;25.37;;;1.10;99.90;;;;;;5053036;28;20048;-79
2024/01/20 09:25:29;;;;;;;48.23;26.10;;;1.10;99.90;;;;;;5058701;28;20133;-80
2024/01/20 09:27:55;;;;;;;45.23;26.17;;;1.10;99.90;;;;;;5037531;28;20045;-80
2024/01/20 09:30:21;;;;;;;44.87;25.63;;;1.20;99.90;;;;;;5040612;28;20052;-79
2024/01/20 09:32:47;;;;;;;49.00;26.07;;;1.20;99.90;;;;;;5050846;28;20044;-80
2024/01/20 09:35:12;;;;;;;45.77;25.47;;;1.20;99.90;;;;;;5034691;28;20124;-81
2024/01/20 09:37:38;;;;;;;48.27;25.67;;;1.20;99.90;;;;;;5038466;28;20036;-81
2024/01/20 09:40:08;;;;;;;45.97;25.80;;;1.30;99.90;;;;;;5023052;28;20037;-80
2024/01/20 09:42:34;;;;;;;47.67;25.57;;;1.30;99.90;;;;;;5033639;28;20075;-81
2024/01/20 09:45:00;;;;;;;44.17;24.30;;;1.40;99.90;;;;;;5035871;28;20073;-81
2024/01/20 09:47:27;;;;;;;49.87;25.57;;;1.40;99.90;;;;;;5035364;28;20436;-81
2024/01/20 09:49:53;;;;;;;46.47;24.90;;;1.40;99.90;;;;;;5039201;28;20041;-80
2024/01/20 09:52:27;;;;;;;46.07;24.87;;;1.50;99.90;;;;;;5038011;28;20041;-81
2024/01/20 09:55:17;;;;;;;44.43;23.83;;;1.60;99.90;;;;;;5053436;28;20065;-80
2024/01/20 09:57:44;;;;;;;43.83;24.33;;;1.60;99.90;;;;;;5037282;28;20488;-79
2024/01/20 10:00:13;;;;;;;45.83;24.97;;;1.70;99.90;;;;;;5035179;28;20572;-79
2024/01/20 10:02:39;;;;;;;44.83;24.43;;;1.70;99.90;;;;;;5017877;28;20091;-80
2024/01/20 10:05:08;;;;;;;46.47;25.83;;;1.70;99.90;;;;;;5040612;28;20045;-79
2024/01/20 10:07:34;;;;;;;42.17;23.97;;;1.70;99.90;;;;;;5020324;28;20817;-79
2024/01/20 10:10:00;;;;;;;43.30;24.43;;;1.70;99.90;;;;;;5051359;28;20041;-79
2024/01/20 10:12:25;;;;;;;42.70;24.43;;;1.60;99.90;;;;;;5034591;28;20033;-80
2024/01/20 10:14:52;;;;;;;41.70;24.30;;;1.70;99.90;;;;;;5003918;28;20094;-80
2024/01/20 10:17:18;;;;;;;42.53;24.67;;;1.70;99.90;;;;;;5035769;28;20037;-80
2024/01/20 10:19:44;;;;;;;41.60;23.40;;;1.70;99.90;;;;;;5054912;28;20067;-80
2024/01/20 10:22:11;;;;;;;38.63;22.43;;;1.70;99.90;;;;;;5040408;28;20040;-80
2024/01/20 10:24:52;;;;;;;40.00;22.30;;;1.70;99.90;;;;;;5036994;28;20036;-81
2024/01/20 10:27:19;;;;;;;39.55;24.17;;;1.80;99.90;;;;;;5021894;28;20044;-80
2024/01/20 10:29:46;;;;;;;42.07;23.43;;;1.80;99.90;;;;;;5051999;28;20044;-80
2024/01/20 10:32:13;;;;;;;39.70;22.87;;;1.90;99.90;;;;;;5058536;28;20039;-81
2024/01/20 10:34:39;;;;;;;40.20;23.53;;;1.90;99.90;;;;;;5049760;28;20032;-81
2024/01/20 10:37:12;;;;;;;38.13;22.43;;;1.90;99.90;;;;;;5021258;28;20041;-82
2024/01/20 10:39:42;;;;;;;42.33;22.40;;;2.00;99.90;;;;;;5032737;28;20570;-81
2024/01/20 10:42:12;;;;;;;38.53;22.40;;;2.00;99.90;;;;;;5037573;28;20033;-81
2024/01/20 10:45:00;;;;;;;38.00;22.10;;;2.00;99.90;;;;;;5023605;28;20040;-81
2024/01/20 10:47:36;;;;;;;37.50;22.53;;;2.10;99.90;;;;;;5035649;28;20037;-81
2024/01/20 10:50:07;;;;;;;38.93;21.77;;;2.20;99.90;;;;;;5045526;28;20076;-81
2024/01/20 10:52:34;;;;;;;37.87;22.20;;;2.20;99.90;;;;;;5022812;28;20045;-81
2024/01/20 10:55:01;;;;;;;36.97;21.10;;;2.30;99.90;;;;;;5035691;28;20072;-81
2024/01/20 10:57:27;;;;;;;36.60;21.77;;;2.30;99.90;;;;;;5016496;28;20099;-81
2024/01/20 10:59:55;;;;;;;39.33;21.23;;;2.30;99.90;;;;;;5039973;28;20037;-81
2024/01/20 11:02:22;;;;;;;37.80;20.30;;;2.30;99.90;;;;;;5040592;28;20040;-81
2024/01/20 11:04:48;;;;;;;38.87;20.43;;;2.30;99.90;;;;;;5043024;28;20076;-81
2024/01/20 11:07:23;;;;;;;38.00;22.20;;;2.40;99.90;;;;;;5040572;28;20068;-81
2024/01/20 11:09:59;;;;;;;34.13;20.80;;;2.40;99.90;;;;;;5053047;28;20098;-82
2024/01/20 11:12:29;;;;;;;34.67;20.87;;;2.50;99.90;;;;;;5057746;28;20083;-80
2024/01/20 11:14:57;;;;;;;35.43;21.17;;;2.50;99.90;;;;;;5017337;28;20694;-80
2024/01/20 11:17:23;;;;;;;34.90;21.23;;;2.50;99.90;;;;;;5032371;28;20037;-82
2024/01/20 11:19:52;;;;;;;38.27;20.63;;;2.50;99.90;;;;;;5026848;28;20036;-81
2024/01/20 11:22:35;;;;;;;37.13;20.43;;;2.50;99.90;;;;;;5022921;28;20435;-81
2024/01/20 11:25:08;;;;;;;37.50;21.40;;;2.60;99.90;;;;;;5044251;28;20427;-81
2024/01/20 11:27:54;;;;;;;34.40;19.93;;;2.60;99.90;;;;;;5057420;28;20045;-82
2024/01/20 11:30:34;;;;;;;36.83;21.33;;;2.60;99.90;;;;;;5023893;28;20048;-82
2024/01/20 11:33:00;;;;;;;38.00;19.40;;;2.50;99.90;;;;;;5049520;28;20562;-81
2024/01/20 11:35:26;;;;;;;32.63;20.10;;;2.60;99.90;;;;;;5033414;28;20476;-81
2024/01/20 11:37:57;;;;;;;35.63;20.57;;;2.60;99.90;;;;;;5000264;28;20107;-81
2024/01/20 11:40:23;;;;;;;36.83;20.30;;;2.60;99.90;;;;;;5050297;28;20453;-81
2024/01/20 11:42:50;;;;;;;33.83;20.03;;;2.60;99.90;;;;;;5033634;28;20052;-81
2024/01/20 11:45:16;;;;;;;37.83;19.93;;;2.60;99.90;;;;;;5063362;28;20041;-81
2024/01/20 11:47:42;;;;;;;38.07;21.10;;;2.50;99.90;;;;;;5049956;28;20136;-81
2024/01/20 11:50:09;;;;;;;33.77;19.50;;;2.50;99.90;;;;;;5046438;28;20095;-82
2024/01/20 11:52:35;;;;;;;36.23;19.43;;;2.50;99.90;;;;;;5031228;28;20079;-81
2024/01/20 11:55:01;;;;;;;33.73;19.83;;;2.50;99.90;;;;;;5020535;28;20559;-82
2024/01/20 11:57:29;;;;;;;33.77;20.37;;;2.50;99.90;;;;;;5028628;28;20119;-83
2024/01/20 11:59:59;;;;;;;31.80;19.33;;;2.50;99.90;;;;;;5037231;28;20063;-83
2024/01/20 12:02:27;;;;;;;35.00;19.53;;;2.50;99.90;;;;;;5026149;28;20459;-82
2024/01/20 12:04:54;;;;;;;35.10;20.13;;;2.50;99.90;;;;;;5062141;28;20103;-83
2024/01/20 12:07:20;;;;;;;35.20;20.33;;;2.50;99.90;;;;;;5049863;28;20049;-83
2024/01/20 12:09:50;;;;;;;36.57;21.03;;;2.50;99.90;;;;;;5033262;28;20507;-83
2024/01/20 12:12:17;;;;;;;33.23;20.03;;;2.50;99.90;;;;;;5033292;28;20091;-82
2024/01/20 12:14:44;;;;;;;38.40;20.80;;;2.50;99.90;;;;;;5049784;28;20041;-81
2024/01/20 12:17:11;;;;;;;36.43;20.13;;;2.60;99.90;;;;;;5054380;28;20046;-80
2024/01/20 12:19:40;;;;;;;35.67;19.87;;;2.60;99.90;;;;;;5038122;28;20072;-82
2024/01/20 12:22:12;;;;;;;35.17;20.57;;;2.60;99.90;;;;;;5035690;28;20072;-82
2024/01/20 12:24:37;;;;;;;35.70;20.38;;;2.70;99.90;;;;;;5037355;28;20036;-83
2024/01/20 12:27:04;;;;;;;34.27;20.60;;;2.70;99.90;;;;;;5034964;28;20619;-81
2024/01/20 12:29:30;;;;;;;35.00;19.77;;;2.70;99.90;;;;;;5046293;28;20128;-82
2024/01/20 12:31:57;;;;;;;32.87;19.67;;;2.70;99.90;;;;;;5035347;28;20413;-81